sensor_id;sensor_type;location;lat;lon;timestamp;temperature;humidity
15625;DHT22;7912;51.376;6.126;2022-10-16T00:01:42;16.50;99.90
15625;DHT22;7912;51.376;6.126;2022-10-16T00:04:10;16.50;99.90
15625;DHT22;7912;51.376;6.126;2022-10-16T00:06:38;16.50;99.90
15625;DHT22;7912;51.376;6.126;2022-10-16T00:09:06;16.50;99.90
15625;DHT22;7912;51.376;6.126;2022-10-16T00:11:35;16.50;99.90
15625;DHT22;7912;51.376;6.126;2022-10-16T00:14:07;16.40;99.90
15625;DHT22;7912;51.376;6.126;2022-10-16T00:16:38;16.50;99.90
15625;DHT22;7912;51.376;6.126;2022-10-16T00:19:05;16.50;99.90
15625;DHT22;7912;51.376;6.126;2022-10-16T00:21:33;16.50;99.90
15625;DHT22;7912;51.376;6.126;2022-10-16T00:24:06;16.50;99.90
15625;DHT22;7912;51.376;6.126;2022-10-16T00:26:38;16.50;99.90
15625;DHT22;7912;51.376;6.126;2022-10-16T00:29:06;16.50;99.90
15625;DHT22;7912;51.376;6.126;2022-10-16T00:31:34;16.50;99.90
15625;DHT22;7912;51.376;6.126;2022-10-16T00:34:01;16.40;99.90
15625;DHT22;7912;51.376;6.126;2022-10-16T00:36:29;16.40;99.90
15625;DHT22;7912;51.376;6.126;2022-10-16T00:38:58;16.40;99.90
15625;DHT22;7912;51.376;6.126;2022-10-16T00:41:28;16.40;99.90
15625;DHT22;7912;51.376;6.126;2022-10-16T00:44:00;16.40;99.90
15625;DHT22;7912;51.376;6.126;2022-10-16T00:46:38;16.40;99.90
15625;DHT22;7912;51.376;6.126;2022-10-16T00:49:10;16.40;99.90
15625;DHT22;7912;51.376;6.126;2022-10-16T00:51:45;16.50;99.90
15625;DHT22;7912;51.376;6.126;2022-10-16T00:54:26;16.40;99.90
15625;DHT22;7912;51.376;6.126;2022-10-16T00:56:58;16.50;99.90
15625;DHT22;7912;51.376;6.126;2022-10-16T00:59:29;16.50;99.90
15625;DHT22;7912;51.376;6.126;2022-10-16T01:02:00;16.50;99.90
15625;DHT22;7912;51.376;6.126;2022-10-16T01:04:35;16.50;99.90
15625;DHT22;7912;51.376;6.126;2022-10-16T01:13:41;16.40;99.90
15625;DHT22;7912;51.376;6.126;2022-10-16T01:16:18;16.40;99.90
15625;DHT22;7912;51.376;6.126;2022-10-16T01:19:26;16.40;99.90
15625;DHT22;7912;51.376;6.126;2022-10-16T01:22:20;16.30;99.90
15625;DHT22;7912;51.376;6.126;2022-10-16T01:24:54;16.30;99.90
15625;DHT22;7912;51.376;6.126;2022-10-16T01:27:30;16.30;99.90
15625;DHT22;7912;51.376;6.126;2022-10-16T01:30:24;16.20;99.90
15625;DHT22;7912;51.376;6.126;2022-10-16T01:33:01;16.20;99.90
15625;DHT22;7912;51.376;6.126;2022-10-16T01:35:41;16.20;99.90
15625;DHT22;7912;51.376;6.126;2022-10-16T01:40:51;16.10;99.90
15625;DHT22;7912;51.376;6.126;2022-10-16T01:43:33;16.00;99.90
15625;DHT22;7912;51.376;6.126;2022-10-16T01:46:04;16.00;99.90
15625;DHT22;7912;51.376;6.126;2022-10-16T01:48:34;16.00;99.90
15625;DHT22;7912;51.376;6.126;2022-10-16T01:51:22;15.90;99.90
15625;DHT22;7912;51.376;6.126;2022-10-16T01:53:53;15.90;99.90
15625;DHT22;7912;51.376;6.126;2022-10-16T01:56:23;15.90;99.90
15625;DHT22;7912;51.376;6.126;2022-10-16T01:59:05;15.80;99.90
15625;DHT22;7912;51.376;6.126;2022-10-16T02:01:38;15.80;99.90
15625;DHT22;7912;51.376;6.126;2022-10-16T02:04:19;15.80;99.90
15625;DHT22;7912;51.376;6.126;2022-10-16T02:06:52;15.80;99.90
15625;DHT22;7912;51.376;6.126;2022-10-16T02:12:55;15.70;99.90
15625;DHT22;7912;51.376;6.126;2022-10-16T02:15:28;15.60;99.90
15625;DHT22;7912;51.376;6.126;2022-10-16T02:17:55;15.60;99.90
15625;DHT22;7912;51.376;6.126;2022-10-16T02:20:27;15.60;99.90
15625;DHT22;7912;51.376;6.126;2022-10-16T02:22:58;15.50;99.90
15625;DHT22;7912;51.376;6.126;2022-10-16T02:25:34;15.50;99.90
15625;DHT22;7912;51.376;6.126;2022-10-16T02:28:27;15.40;99.90
15625;DHT22;7912;51.376;6.126;2022-10-16T02:31:07;15.50;99.90
15625;DHT22;7912;51.376;6.126;2022-10-16T02:33:38;15.40;99.90
15625;DHT22;7912;51.376;6.126;2022-10-16T02:36:09;15.40;99.90
15625;DHT22;7912;51.376;6.126;2022-10-16T02:38:38;15.30;99.90
15625;DHT22;7912;51.376;6.126;2022-10-16T02:41:08;15.30;99.90
15625;DHT22;7912;51.376;6.126;2022-10-16T02:43:35;15.30;99.90
15625;DHT22;7912;51.376;6.126;2022-10-16T02:46:02;15.30;99.90
15625;DHT22;7912;51.376;6.126;2022-10-16T02:48:30;15.30;99.90
15625;DHT22;7912;51.376;6.126;2022-10-16T02:50:57;15.30;99.90
15625;DHT22;7912;51.376;6.126;2022-10-16T02:53:24;15.30;99.90
15625;DHT22;7912;51.376;6.126;2022-10-16T02:55:51;15.40;99.90
15625;DHT22;7912;51.376;6.126;2022-10-16T02:58:19;15.40;99.90
15625;DHT22;7912;51.376;6.126;2022-10-16T03:00:46;15.40;99.90
15625;DHT22;7912;51.376;6.126;2022-10-16T03:03:14;15.40;99.90
15625;DHT22;7912;51.376;6.126;2022-10-16T03:05:43;15.40;99.90
15625;DHT22;7912;51.376;6.126;2022-10-16T03:08:12;15.40;99.90
15625;DHT22;7912;51.376;6.126;2022-10-16T03:10:40;15.40;99.90
15625;DHT22;7912;51.376;6.126;2022-10-16T03:13:07;15.40;99.90
15625;DHT22;7912;51.376;6.126;2022-10-16T03:15:35;15.50;99.90
15625;DHT22;7912;51.376;6.126;2022-10-16T03:18:02;15.50;99.90
15625;DHT22;7912;51.376;6.126;2022-10-16T03:20:29;15.50;99.90
15625;DHT22;7912;51.376;6.126;2022-10-16T03:22:58;15.50;99.90
15625;DHT22;7912;51.376;6.126;2022-10-16T03:25:25;15.50;99.90
15625;DHT22;7912;51.376;6.126;2022-10-16T03:27:53;15.60;99.90
15625;DHT22;7912;51.376;6.126;2022-10-16T03:30:21;15.60;99.90
15625;DHT22;7912;51.376;6.126;2022-10-16T03:32:48;15.60;99.90
15625;DHT22;7912;51.376;6.126;2022-10-16T03:35:22;15.60;99.90
15625;DHT22;7912;51.376;6.126;2022-10-16T03:37:50;15.60;99.90
15625;DHT22;7912;51.376;6.126;2022-10-16T03:40:18;15.60;99.90
15625;DHT22;7912;51.376;6.126;2022-10-16T03:42:45;15.60;99.90
15625;DHT22;7912;51.376;6.126;2022-10-16T03:45:14;15.60;99.90
15625;DHT22;7912;51.376;6.126;2022-10-16T03:47:41;15.60;99.90
15625;DHT22;7912;51.376;6.126;2022-10-16T03:50:09;15.60;99.90
15625;DHT22;7912;51.376;6.126;2022-10-16T03:52:36;15.70;99.90
15625;DHT22;7912;51.376;6.126;2022-10-16T03:55:04;15.70;99.90
15625;DHT22;7912;51.376;6.126;2022-10-16T03:57:31;15.70;99.90
15625;DHT22;7912;51.376;6.126;2022-10-16T03:59:59;15.70;99.90
15625;DHT22;7912;51.376;6.126;2022-10-16T04:02:26;15.70;99.90
15625;DHT22;7912;51.376;6.126;2022-10-16T04:04:54;15.70;99.90
15625;DHT22;7912;51.376;6.126;2022-10-16T04:07:21;15.70;99.90
15625;DHT22;7912;51.376;6.126;2022-10-16T04:09:49;15.70;99.90
15625;DHT22;7912;51.376;6.126;2022-10-16T04:12:18;15.80;99.90
15625;DHT22;7912;51.376;6.126;2022-10-16T04:14:46;15.80;99.90
15625;DHT22;7912;51.376;6.126;2022-10-16T04:17:13;15.80;99.90
15625;DHT22;7912;51.376;6.126;2022-10-16T04:19:41;15.80;99.90
15625;DHT22;7912;51.376;6.126;2022-10-16T04:22:08;15.80;99.90
15625;DHT22;7912;51.376;6.126;2022-10-16T04:24:35;15.80;99.90
15625;DHT22;7912;51.376;6.126;2022-10-16T04:27:03;15.80;99.90
15625;DHT22;7912;51.376;6.126;2022-10-16T04:29:30;15.80;99.90
15625;DHT22;7912;51.376;6.126;2022-10-16T04:31:57;15.80;99.90
15625;DHT22;7912;51.376;6.126;2022-10-16T04:34:25;15.80;99.90
15625;DHT22;7912;51.376;6.126;2022-10-16T04:36:52;15.90;99.90
15625;DHT22;7912;51.376;6.126;2022-10-16T04:39:20;15.90;99.90
15625;DHT22;7912;51.376;6.126;2022-10-16T04:41:47;15.90;99.90
15625;DHT22;7912;51.376;6.126;2022-10-16T04:44:14;15.90;99.90
15625;DHT22;7912;51.376;6.126;2022-10-16T04:46:41;15.90;99.90
15625;DHT22;7912;51.376;6.126;2022-10-16T04:49:09;15.90;99.90
15625;DHT22;7912;51.376;6.126;2022-10-16T04:51:36;15.90;99.90
15625;DHT22;7912;51.376;6.126;2022-10-16T04:54:03;15.90;99.90
15625;DHT22;7912;51.376;6.126;2022-10-16T04:56:31;15.90;99.90
15625;DHT22;7912;51.376;6.126;2022-10-16T04:58:58;15.90;99.90
15625;DHT22;7912;51.376;6.126;2022-10-16T05:01:25;15.90;99.90
15625;DHT22;7912;51.376;6.126;2022-10-16T05:03:53;16.00;99.90
15625;DHT22;7912;51.376;6.126;2022-10-16T05:06:20;16.00;99.90
15625;DHT22;7912;51.376;6.126;2022-10-16T05:08:48;16.00;99.90
15625;DHT22;7912;51.376;6.126;2022-10-16T05:11:15;16.00;99.90
15625;DHT22;7912;51.376;6.126;2022-10-16T05:13:43;16.00;99.90
15625;DHT22;7912;51.376;6.126;2022-10-16T05:16:11;15.90;99.90
15625;DHT22;7912;51.376;6.126;2022-10-16T05:18:38;15.90;99.90
15625;DHT22;7912;51.376;6.126;2022-10-16T05:21:05;16.00;99.90
15625;DHT22;7912;51.376;6.126;2022-10-16T05:23:33;16.00;99.90
15625;DHT22;7912;51.376;6.126;2022-10-16T05:26:00;16.00;99.90
15625;DHT22;7912;51.376;6.126;2022-10-16T05:28:28;16.00;99.90
15625;DHT22;7912;51.376;6.126;2022-10-16T05:30:57;16.00;99.90
15625;DHT22;7912;51.376;6.126;2022-10-16T05:33:26;16.00;99.90
15625;DHT22;7912;51.376;6.126;2022-10-16T05:35:53;15.90;99.90
15625;DHT22;7912;51.376;6.126;2022-10-16T05:38:21;16.00;99.90
15625;DHT22;7912;51.376;6.126;2022-10-16T05:40:52;16.00;99.90
15625;DHT22;7912;51.376;6.126;2022-10-16T05:43:20;15.90;99.90
15625;DHT22;7912;51.376;6.126;2022-10-16T05:45:56;15.90;99.90
15625;DHT22;7912;51.376;6.126;2022-10-16T05:48:28;15.90;99.90
15625;DHT22;7912;51.376;6.126;2022-10-16T05:51:01;15.90;99.90
15625;DHT22;7912;51.376;6.126;2022-10-16T05:53:33;15.90;99.90
15625;DHT22;7912;51.376;6.126;2022-10-16T05:56:02;15.90;99.90
15625;DHT22;7912;51.376;6.126;2022-10-16T05:58:35;15.90;99.90
15625;DHT22;7912;51.376;6.126;2022-10-16T06:01:06;15.90;99.90
15625;DHT22;7912;51.376;6.126;2022-10-16T06:03:36;15.80;99.90
15625;DHT22;7912;51.376;6.126;2022-10-16T06:06:12;15.80;99.90
15625;DHT22;7912;51.376;6.126;2022-10-16T06:08:48;15.80;99.90
15625;DHT22;7912;51.376;6.126;2022-10-16T06:11:18;15.80;99.90
15625;DHT22;7912;51.376;6.126;2022-10-16T06:13:52;15.80;99.90
15625;DHT22;7912;51.376;6.126;2022-10-16T06:16:20;15.80;99.90
15625;DHT22;7912;51.376;6.126;2022-10-16T06:18:51;15.80;99.90
15625;DHT22;7912;51.376;6.126;2022-10-16T06:21:21;15.80;99.90
15625;DHT22;7912;51.376;6.126;2022-10-16T06:23:52;15.80;99.90
15625;DHT22;7912;51.376;6.126;2022-10-16T06:26:23;15.80;99.90
15625;DHT22;7912;51.376;6.126;2022-10-16T06:28:58;15.80;99.90
15625;DHT22;7912;51.376;6.126;2022-10-16T06:31:27;15.80;99.90
15625;DHT22;7912;51.376;6.126;2022-10-16T06:33:58;15.80;99.90
15625;DHT22;7912;51.376;6.126;2022-10-16T06:36:26;15.80;99.90
15625;DHT22;7912;51.376;6.126;2022-10-16T06:38:54;15.80;99.90
15625;DHT22;7912;51.376;6.126;2022-10-16T06:41:22;15.80;99.90
15625;DHT22;7912;51.376;6.126;2022-10-16T06:43:50;15.80;99.90
15625;DHT22;7912;51.376;6.126;2022-10-16T06:46:21;15.80;99.90
15625;DHT22;7912;51.376;6.126;2022-10-16T06:48:52;15.80;99.90
15625;DHT22;7912;51.376;6.126;2022-10-16T06:51:22;15.80;99.90
15625;DHT22;7912;51.376;6.126;2022-10-16T06:53:52;15.80;99.90
15625;DHT22;7912;51.376;6.126;2022-10-16T06:56:31;15.90;99.90
15625;DHT22;7912;51.376;6.126;2022-10-16T06:58:59;15.90;99.90
15625;DHT22;7912;51.376;6.126;2022-10-16T07:01:27;15.80;99.90
15625;DHT22;7912;51.376;6.126;2022-10-16T07:03:55;15.90;99.90
15625;DHT22;7912;51.376;6.126;2022-10-16T07:06:24;15.90;99.90
15625;DHT22;7912;51.376;6.126;2022-10-16T07:08:53;15.90;99.90
15625;DHT22;7912;51.376;6.126;2022-10-16T07:11:22;15.90;99.90
15625;DHT22;7912;51.376;6.126;2022-10-16T07:13:51;15.90;99.90
15625;DHT22;7912;51.376;6.126;2022-10-16T07:16:30;15.90;99.90
15625;DHT22;7912;51.376;6.126;2022-10-16T07:19:00;15.90;99.90
15625;DHT22;7912;51.376;6.126;2022-10-16T07:21:31;16.00;99.90
15625;DHT22;7912;51.376;6.126;2022-10-16T07:24:11;16.00;99.90
15625;DHT22;7912;51.376;6.126;2022-10-16T07:26:41;16.00;99.90
15625;DHT22;7912;51.376;6.126;2022-10-16T07:29:16;16.10;99.90
15625;DHT22;7912;51.376;6.126;2022-10-16T07:31:47;16.10;99.90
15625;DHT22;7912;51.376;6.126;2022-10-16T07:34:16;16.10;99.90
15625;DHT22;7912;51.376;6.126;2022-10-16T07:36:48;16.20;99.90
15625;DHT22;7912;51.376;6.126;2022-10-16T07:39:17;16.20;99.90
15625;DHT22;7912;51.376;6.126;2022-10-16T07:41:45;16.30;99.90
15625;DHT22;7912;51.376;6.126;2022-10-16T07:44:13;16.30;99.90
15625;DHT22;7912;51.376;6.126;2022-10-16T07:49:47;16.40;99.90
15625;DHT22;7912;51.376;6.126;2022-10-16T07:52:14;16.50;99.90
15625;DHT22;7912;51.376;6.126;2022-10-16T07:54:42;16.60;99.90
15625;DHT22;7912;51.376;6.126;2022-10-16T07:57:09;16.60;99.90
15625;DHT22;7912;51.376;6.126;2022-10-16T07:59:37;16.70;99.90
15625;DHT22;7912;51.376;6.126;2022-10-16T08:02:05;16.70;99.90
15625;DHT22;7912;51.376;6.126;2022-10-16T08:11:47;17.00;99.90
15625;DHT22;7912;51.376;6.126;2022-10-16T08:14:15;17.00;99.90
15625;DHT22;7912;51.376;6.126;2022-10-16T08:16:42;17.10;99.90
15625;DHT22;7912;51.376;6.126;2022-10-16T08:19:11;17.10;99.90
15625;DHT22;7912;51.376;6.126;2022-10-16T08:21:40;17.20;99.90
15625;DHT22;7912;51.376;6.126;2022-10-16T08:24:08;17.30;99.90
15625;DHT22;7912;51.376;6.126;2022-10-16T08:26:36;17.30;99.90
15625;DHT22;7912;51.376;6.126;2022-10-16T08:29:03;17.40;99.90
15625;DHT22;7912;51.376;6.126;2022-10-16T08:31:31;17.50;99.90
15625;DHT22;7912;51.376;6.126;2022-10-16T08:33:58;17.50;99.90
15625;DHT22;7912;51.376;6.126;2022-10-16T08:36:26;17.60;99.90
15625;DHT22;7912;51.376;6.126;2022-10-16T08:38:53;17.70;99.90
15625;DHT22;7912;51.376;6.126;2022-10-16T08:47:48;17.90;99.90
15625;DHT22;7912;51.376;6.126;2022-10-16T08:50:37;18.00;99.90
15625;DHT22;7912;51.376;6.126;2022-10-16T08:53:09;18.00;99.90
15625;DHT22;7912;51.376;6.126;2022-10-16T08:58:22;18.20;99.90
15625;DHT22;7912;51.376;6.126;2022-10-16T09:01:00;18.20;99.90
15625;DHT22;7912;51.376;6.126;2022-10-16T09:18:09;18.70;99.90
15625;DHT22;7912;51.376;6.126;2022-10-16T09:21:14;18.80;99.90
15625;DHT22;7912;51.376;6.126;2022-10-16T09:23:39;18.80;99.90
15625;DHT22;7912;51.376;6.126;2022-10-16T09:26:13;18.90;99.90
15625;DHT22;7912;51.376;6.126;2022-10-16T09:28:43;19.00;99.90
15625;DHT22;7912;51.376;6.126;2022-10-16T09:31:15;19.00;99.90
15625;DHT22;7912;51.376;6.126;2022-10-16T09:33:55;19.10;99.90
15625;DHT22;7912;51.376;6.126;2022-10-16T09:36:28;19.20;99.90
15625;DHT22;7912;51.376;6.126;2022-10-16T09:39:08;19.20;99.90
15625;DHT22;7912;51.376;6.126;2022-10-16T09:41:42;19.30;99.90
15625;DHT22;7912;51.376;6.126;2022-10-16T09:44:29;19.40;99.90
15625;DHT22;7912;51.376;6.126;2022-10-16T09:47:04;19.40;99.90
15625;DHT22;7912;51.376;6.126;2022-10-16T09:49:49;19.60;99.90
15625;DHT22;7912;51.376;6.126;2022-10-16T09:52:20;19.70;99.90
15625;DHT22;7912;51.376;6.126;2022-10-16T09:54:56;19.90;99.90
15625;DHT22;7912;51.376;6.126;2022-10-16T09:57:26;20.20;99.90
15625;DHT22;7912;51.376;6.126;2022-10-16T09:59:56;20.40;99.90
15625;DHT22;7912;51.376;6.126;2022-10-16T10:02:31;20.70;99.90
15625;DHT22;7912;51.376;6.126;2022-10-16T10:05:02;21.00;99.90
15625;DHT22;7912;51.376;6.126;2022-10-16T10:07:37;21.30;99.90
15625;DHT22;7912;51.376;6.126;2022-10-16T10:10:28;21.70;99.90
15625;DHT22;7912;51.376;6.126;2022-10-16T10:12:57;22.10;99.90
15625;DHT22;7912;51.376;6.126;2022-10-16T10:15:33;22.40;99.90
15625;DHT22;7912;51.376;6.126;2022-10-16T10:18:02;22.70;99.90
15625;DHT22;7912;51.376;6.126;2022-10-16T10:20:42;23.10;99.90
15625;DHT22;7912;51.376;6.126;2022-10-16T10:23:25;23.50;99.90
15625;DHT22;7912;51.376;6.126;2022-10-16T10:26:20;23.80;99.90
15625;DHT22;7912;51.376;6.126;2022-10-16T10:40:34;24.90;99.90
15625;DHT22;7912;51.376;6.126;2022-10-16T10:43:52;24.80;99.90
15625;DHT22;7912;51.376;6.126;2022-10-16T10:46:50;24.70;99.60
15625;DHT22;7912;51.376;6.126;2022-10-16T10:58:52;23.80;99.40
15625;DHT22;7912;51.376;6.126;2022-10-16T11:07:52;23.50;99.90
15625;DHT22;7912;51.376;6.126;2022-10-16T11:10:28;23.40;99.80
15625;DHT22;7912;51.376;6.126;2022-10-16T11:15:58;23.20;99.90
15625;DHT22;7912;51.376;6.126;2022-10-16T11:18:39;23.20;99.90
15625;DHT22;7912;51.376;6.126;2022-10-16T11:21:18;23.10;99.90
15625;DHT22;7912;51.376;6.126;2022-10-16T11:24:06;23.20;99.90
15625;DHT22;7912;51.376;6.126;2022-10-16T11:26:46;23.20;99.90
15625;DHT22;7912;51.376;6.126;2022-10-16T11:29:24;23.20;99.90
15625;DHT22;7912;51.376;6.126;2022-10-16T11:32:22;23.30;99.90
15625;DHT22;7912;51.376;6.126;2022-10-16T11:35:02;23.30;99.90
15625;DHT22;7912;51.376;6.126;2022-10-16T11:37:42;23.40;99.90
15625;DHT22;7912;51.376;6.126;2022-10-16T11:40:32;23.50;99.90
15625;DHT22;7912;51.376;6.126;2022-10-16T11:43:13;23.70;99.90
15625;DHT22;7912;51.376;6.126;2022-10-16T11:45:53;23.90;99.90
15625;DHT22;7912;51.376;6.126;2022-10-16T11:49:21;24.30;99.70
15625;DHT22;7912;51.376;6.126;2022-10-16T11:51:39;24.60;99.70
15625;DHT22;7912;51.376;6.126;2022-10-16T11:57:13;25.70;98.30
15625;DHT22;7912;51.376;6.126;2022-10-16T12:00:10;26.30;97.40
15625;DHT22;7912;51.376;6.126;2022-10-16T12:08:51;27.50;94.20
15625;DHT22;7912;51.376;6.126;2022-10-16T12:19:29;27.00;92.30
15625;DHT22;7912;51.376;6.126;2022-10-16T12:21:59;26.80;92.70
15625;DHT22;7912;51.376;6.126;2022-10-16T12:24:37;26.70;93.20
15625;DHT22;7912;51.376;6.126;2022-10-16T12:27:40;26.60;93.20
15625;DHT22;7912;51.376;6.126;2022-10-16T12:30:22;26.70;93.10
15625;DHT22;7912;51.376;6.126;2022-10-16T12:33:15;26.80;92.40
15625;DHT22;7912;51.376;6.126;2022-10-16T12:35:49;26.90;92.50
15625;DHT22;7912;51.376;6.126;2022-10-16T12:38:28;27.00;93.10
15625;DHT22;7912;51.376;6.126;2022-10-16T12:41:05;27.20;92.50
15625;DHT22;7912;51.376;6.126;2022-10-16T12:43:43;27.40;92.30
15625;DHT22;7912;51.376;6.126;2022-10-16T12:48:42;27.90;91.50
15625;DHT22;7912;51.376;6.126;2022-10-16T12:54:02;28.00;90.50
15625;DHT22;7912;51.376;6.126;2022-10-16T13:00:40;28.00;90.30
15625;DHT22;7912;51.376;6.126;2022-10-16T13:04:20;28.10;89.80
15625;DHT22;7912;51.376;6.126;2022-10-16T13:10:15;28.20;87.00
15625;DHT22;7912;51.376;6.126;2022-10-16T13:16:24;27.70;87.50
15625;DHT22;7912;51.376;6.126;2022-10-16T13:22:16;27.00;89.40
15625;DHT22;7912;51.376;6.126;2022-10-16T13:28:01;26.40;90.80
15625;DHT22;7912;51.376;6.126;2022-10-16T13:30:45;26.10;91.00
15625;DHT22;7912;51.376;6.126;2022-10-16T13:33:38;25.90;91.60
15625;DHT22;7912;51.376;6.126;2022-10-16T13:36:22;25.80;92.00
15625;DHT22;7912;51.376;6.126;2022-10-16T13:39:14;25.70;92.40
15625;DHT22;7912;51.376;6.126;2022-10-16T13:42:11;25.80;92.50
15625;DHT22;7912;51.376;6.126;2022-10-16T13:44:55;25.90;92.20
15625;DHT22;7912;51.376;6.126;2022-10-16T13:47:25;26.00;92.50
15625;DHT22;7912;51.376;6.126;2022-10-16T13:50:09;26.10;92.00
15625;DHT22;7912;51.376;6.126;2022-10-16T13:52:39;26.10;91.90
15625;DHT22;7912;51.376;6.126;2022-10-16T13:57:44;25.90;91.70
15625;DHT22;7912;51.376;6.126;2022-10-16T14:00:23;25.80;92.20
15625;DHT22;7912;51.376;6.126;2022-10-16T14:03:15;25.60;92.10
15625;DHT22;7912;51.376;6.126;2022-10-16T14:05:54;25.50;92.50
15625;DHT22;7912;51.376;6.126;2022-10-16T14:08:25;25.40;92.60
15625;DHT22;7912;51.376;6.126;2022-10-16T14:11:01;25.40;93.10
15625;DHT22;7912;51.376;6.126;2022-10-16T14:13:47;25.30;93.20
15625;DHT22;7912;51.376;6.126;2022-10-16T14:16:24;25.20;93.10
15625;DHT22;7912;51.376;6.126;2022-10-16T14:19:04;25.20;93.20
15625;DHT22;7912;51.376;6.126;2022-10-16T14:21:40;25.10;93.20
15625;DHT22;7912;51.376;6.126;2022-10-16T14:24:12;25.00;93.30
15625;DHT22;7912;51.376;6.126;2022-10-16T14:26:49;24.90;93.20
15625;DHT22;7912;51.376;6.126;2022-10-16T14:29:20;24.80;93.70
15625;DHT22;7912;51.376;6.126;2022-10-16T14:32:26;24.70;93.60
15625;DHT22;7912;51.376;6.126;2022-10-16T14:34:54;24.60;93.60
15625;DHT22;7912;51.376;6.126;2022-10-16T14:37:27;24.50;94.20
15625;DHT22;7912;51.376;6.126;2022-10-16T14:39:57;24.40;94.00
15625;DHT22;7912;51.376;6.126;2022-10-16T14:42:25;24.30;94.30
15625;DHT22;7912;51.376;6.126;2022-10-16T14:44:53;24.30;94.60
15625;DHT22;7912;51.376;6.126;2022-10-16T14:47:24;24.20;94.60
15625;DHT22;7912;51.376;6.126;2022-10-16T14:49:54;24.10;94.60
15625;DHT22;7912;51.376;6.126;2022-10-16T14:52:23;24.10;94.80
15625;DHT22;7912;51.376;6.126;2022-10-16T14:54:50;24.00;94.90
15625;DHT22;7912;51.376;6.126;2022-10-16T14:57:24;24.00;95.00
15625;DHT22;7912;51.376;6.126;2022-10-16T14:59:55;23.80;95.20
15625;DHT22;7912;51.376;6.126;2022-10-16T15:02:31;23.80;95.40
15625;DHT22;7912;51.376;6.126;2022-10-16T15:08:25;23.70;96.00
15625;DHT22;7912;51.376;6.126;2022-10-16T15:10:52;23.60;96.00
15625;DHT22;7912;51.376;6.126;2022-10-16T15:13:20;23.60;96.20
15625;DHT22;7912;51.376;6.126;2022-10-16T15:15:47;23.60;96.50
15625;DHT22;7912;51.376;6.126;2022-10-16T15:18:18;23.60;96.70
15625;DHT22;7912;51.376;6.126;2022-10-16T15:20:50;23.50;96.70
15625;DHT22;7912;51.376;6.126;2022-10-16T15:23:20;23.50;96.80
15625;DHT22;7912;51.376;6.126;2022-10-16T15:25:51;23.50;96.80
15625;DHT22;7912;51.376;6.126;2022-10-16T15:28:21;23.50;96.90
15625;DHT22;7912;51.376;6.126;2022-10-16T15:30:52;23.40;97.10
15625;DHT22;7912;51.376;6.126;2022-10-16T15:33:24;23.40;97.20
15625;DHT22;7912;51.376;6.126;2022-10-16T15:36:05;23.30;97.10
15625;DHT22;7912;51.376;6.126;2022-10-16T15:38:33;23.30;97.30
15625;DHT22;7912;51.376;6.126;2022-10-16T15:41:01;23.30;97.20
15625;DHT22;7912;51.376;6.126;2022-10-16T15:43:28;23.20;97.40
15625;DHT22;7912;51.376;6.126;2022-10-16T15:46:03;23.20;97.40
15625;DHT22;7912;51.376;6.126;2022-10-16T15:48:33;23.10;97.30
15625;DHT22;7912;51.376;6.126;2022-10-16T15:51:07;23.10;97.50
15625;DHT22;7912;51.376;6.126;2022-10-16T15:53:35;23.00;97.60
15625;DHT22;7912;51.376;6.126;2022-10-16T15:56:03;22.90;97.70
15625;DHT22;7912;51.376;6.126;2022-10-16T15:58:32;22.80;97.90
15625;DHT22;7912;51.376;6.126;2022-10-16T16:01:00;22.80;98.00
15625;DHT22;7912;51.376;6.126;2022-10-16T16:03:32;22.70;98.20
15625;DHT22;7912;51.376;6.126;2022-10-16T16:06:04;22.60;98.30
15625;DHT22;7912;51.376;6.126;2022-10-16T16:08:34;22.50;98.60
15625;DHT22;7912;51.376;6.126;2022-10-16T16:11:05;22.40;98.50
15625;DHT22;7912;51.376;6.126;2022-10-16T16:13:37;22.30;98.80
15625;DHT22;7912;51.376;6.126;2022-10-16T16:16:07;22.30;99.00
15625;DHT22;7912;51.376;6.126;2022-10-16T16:18:35;22.20;99.10
15625;DHT22;7912;51.376;6.126;2022-10-16T16:21:04;22.10;99.20
15625;DHT22;7912;51.376;6.126;2022-10-16T16:23:32;22.10;99.40
15625;DHT22;7912;51.376;6.126;2022-10-16T16:26:09;22.00;99.70
15625;DHT22;7912;51.376;6.126;2022-10-16T16:28:41;21.90;99.90
15625;DHT22;7912;51.376;6.126;2022-10-16T16:31:10;21.80;99.90
15625;DHT22;7912;51.376;6.126;2022-10-16T16:33:37;21.70;99.90
15625;DHT22;7912;51.376;6.126;2022-10-16T16:36:06;21.70;99.90
15625;DHT22;7912;51.376;6.126;2022-10-16T16:38:41;21.50;99.90
15625;DHT22;7912;51.376;6.126;2022-10-16T16:41:23;21.50;99.90
15625;DHT22;7912;51.376;6.126;2022-10-16T16:43:53;21.40;99.90
15625;DHT22;7912;51.376;6.126;2022-10-16T16:46:21;21.40;99.90
15625;DHT22;7912;51.376;6.126;2022-10-16T16:48:49;21.30;99.90
15625;DHT22;7912;51.376;6.126;2022-10-16T16:51:18;21.20;99.90
15625;DHT22;7912;51.376;6.126;2022-10-16T16:53:49;21.10;99.90
15625;DHT22;7912;51.376;6.126;2022-10-16T16:56:22;21.00;99.90
15625;DHT22;7912;51.376;6.126;2022-10-16T16:58:52;21.00;99.90
15625;DHT22;7912;51.376;6.126;2022-10-16T17:01:23;20.90;99.90
15625;DHT22;7912;51.376;6.126;2022-10-16T17:03:54;20.90;99.90
15625;DHT22;7912;51.376;6.126;2022-10-16T17:06:27;20.80;99.90
15625;DHT22;7912;51.376;6.126;2022-10-16T17:09:00;20.70;99.90
15625;DHT22;7912;51.376;6.126;2022-10-16T17:11:29;20.70;99.90
15625;DHT22;7912;51.376;6.126;2022-10-16T17:13:58;20.60;99.90
15625;DHT22;7912;51.376;6.126;2022-10-16T17:16:32;20.60;99.90
15625;DHT22;7912;51.376;6.126;2022-10-16T17:19:03;20.50;99.90
15625;DHT22;7912;51.376;6.126;2022-10-16T17:21:36;20.50;99.90
15625;DHT22;7912;51.376;6.126;2022-10-16T17:24:07;20.50;99.90
15625;DHT22;7912;51.376;6.126;2022-10-16T17:26:35;20.40;99.90
15625;DHT22;7912;51.376;6.126;2022-10-16T17:29:04;20.40;99.90
15625;DHT22;7912;51.376;6.126;2022-10-16T17:31:34;20.40;99.90
15625;DHT22;7912;51.376;6.126;2022-10-16T17:34:06;20.40;99.90
15625;DHT22;7912;51.376;6.126;2022-10-16T17:36:35;20.40;99.90
15625;DHT22;7912;51.376;6.126;2022-10-16T17:39:06;20.40;99.90
15625;DHT22;7912;51.376;6.126;2022-10-16T17:41:35;20.30;99.90
15625;DHT22;7912;51.376;6.126;2022-10-16T17:44:04;20.30;99.90
15625;DHT22;7912;51.376;6.126;2022-10-16T17:46:32;20.30;99.90
15625;DHT22;7912;51.376;6.126;2022-10-16T17:49:08;20.30;99.90
15625;DHT22;7912;51.376;6.126;2022-10-16T17:51:36;20.30;99.90
15625;DHT22;7912;51.376;6.126;2022-10-16T17:54:06;20.30;99.90
15625;DHT22;7912;51.376;6.126;2022-10-16T17:56:33;20.20;99.90
15625;DHT22;7912;51.376;6.126;2022-10-16T17:59:01;20.20;99.90
15625;DHT22;7912;51.376;6.126;2022-10-16T18:01:34;20.20;99.90
15625;DHT22;7912;51.376;6.126;2022-10-16T18:04:09;20.20;99.90
15625;DHT22;7912;51.376;6.126;2022-10-16T18:06:44;20.10;99.90
15625;DHT22;7912;51.376;6.126;2022-10-16T18:09:15;20.10;99.90
15625;DHT22;7912;51.376;6.126;2022-10-16T18:11:44;20.10;99.90
15625;DHT22;7912;51.376;6.126;2022-10-16T18:14:16;20.00;99.90
15625;DHT22;7912;51.376;6.126;2022-10-16T18:16:46;20.00;99.90
15625;DHT22;7912;51.376;6.126;2022-10-16T18:19:14;20.00;99.90
15625;DHT22;7912;51.376;6.126;2022-10-16T18:21:41;20.00;99.90
15625;DHT22;7912;51.376;6.126;2022-10-16T18:24:09;19.90;99.90